createdAt,value
2019-05-23T00:02:47.819Z,12.40
2019-05-23T00:05:26.655Z,12.30
2019-05-23T00:07:56.578Z,12.30
2019-05-23T00:10:38.443Z,12.30
2019-05-23T00:13:35.382Z,12.20
2019-05-23T00:16:06.532Z,12.10
2019-05-23T00:18:35.848Z,12.00
2019-05-23T00:21:05.578Z,12.00
2019-05-23T00:23:34.972Z,12.00
2019-05-23T00:26:04.578Z,12.00
2019-05-23T00:28:33.967Z,11.90
2019-05-23T00:31:11.651Z,11.90
2019-05-23T00:33:41.258Z,11.90
2019-05-23T00:36:11.396Z,12.00
2019-05-23T00:38:41.120Z,12.00
2019-05-23T00:41:12.629Z,12.00
2019-05-23T00:43:42.380Z,12.00
2019-05-23T00:46:11.749Z,12.00
2019-05-23T00:48:41.047Z,12.00
2019-05-23T00:51:11.956Z,11.90
2019-05-23T00:53:42.224Z,11.80
2019-05-23T00:56:12.984Z,11.80
2019-05-23T00:58:42.303Z,11.80
2019-05-23T01:01:11.683Z,11.80
2019-05-23T01:03:41.117Z,11.80
2019-05-23T01:06:10.661Z,11.70
2019-05-23T01:08:40.727Z,11.70
2019-05-23T01:11:10.736Z,11.80
2019-05-23T01:13:39.814Z,11.80
2019-05-23T01:16:08.834Z,11.70
2019-05-23T01:18:39.205Z,11.70
2019-05-23T01:21:30.263Z,11.70
2019-05-23T01:24:05.236Z,11.70
2019-05-23T01:26:34.656Z,11.70
2019-05-23T01:29:04.052Z,11.70
2019-05-23T01:31:37.106Z,11.70
2019-05-23T01:34:07.230Z,11.70
2019-05-23T01:36:36.983Z,11.70
2019-05-23T01:39:10.176Z,11.70
2019-05-23T01:41:39.805Z,11.60
2019-05-23T01:44:10.347Z,11.60
2019-05-23T01:46:39.870Z,11.60
2019-05-23T01:49:09.049Z,11.60
2019-05-23T01:51:38.246Z,11.60
2019-05-23T01:54:07.562Z,11.60
2019-05-23T01:56:37.219Z,11.50
2019-05-23T01:59:06.838Z,11.50
2019-05-23T02:01:37.721Z,11.50
2019-05-23T02:04:06.973Z,11.50
2019-05-23T02:06:36.365Z,11.40
2019-05-23T02:09:08.465Z,11.50
2019-05-23T02:11:37.786Z,11.50
2019-05-23T02:14:07.921Z,11.50
2019-05-23T02:16:37.830Z,11.50
2019-05-23T02:19:07.059Z,11.50
2019-05-23T02:21:36.236Z,11.50
2019-05-23T02:24:07.172Z,11.50
2019-05-23T02:26:37.108Z,11.50
2019-05-23T02:29:06.407Z,11.50
2019-05-23T02:31:35.221Z,11.50
2019-05-23T02:34:05.992Z,11.40
2019-05-23T02:36:35.418Z,11.50
2019-05-23T02:39:37.885Z,11.50
2019-05-23T02:42:29.241Z,11.40
2019-05-23T02:44:59.726Z,11.40
2019-05-23T02:47:38.656Z,11.40
2019-05-23T02:50:11.010Z,11.30
2019-05-23T02:52:46.267Z,11.30
2019-05-23T02:55:24.977Z,11.30
2019-05-23T02:57:55.381Z,11.30
2019-05-23T03:00:54.079Z,11.30
2019-05-23T03:03:24.398Z,11.30
2019-05-23T03:05:55.142Z,11.20
2019-05-23T03:08:25.221Z,11.20
2019-05-23T03:11:04.047Z,11.30
2019-05-23T03:13:34.252Z,11.10
2019-05-23T03:16:03.559Z,11.20
2019-05-23T03:18:37.589Z,11.30
2019-05-23T03:21:08.747Z,11.30
2019-05-23T03:23:37.644Z,11.30
2019-05-23T03:26:44.796Z,11.20
2019-05-23T03:29:15.125Z,11.30
2019-05-23T03:31:49.401Z,11.20
2019-05-23T03:34:20.535Z,11.20
2019-05-23T03:36:50.207Z,11.20
2019-05-23T03:39:19.884Z,11.30
2019-05-23T03:41:48.916Z,11.30
2019-05-23T03:44:18.947Z,11.30
2019-05-23T03:46:50.987Z,11.30
2019-05-23T03:49:20.980Z,11.40
2019-05-23T03:51:50.645Z,11.40
2019-05-23T03:54:20.937Z,11.30
2019-05-23T03:56:50.416Z,11.40
2019-05-23T03:59:22.117Z,11.40
2019-05-23T04:01:52.293Z,11.50
2019-05-23T04:04:21.953Z,11.40
2019-05-23T04:06:50.994Z,11.40
2019-05-23T04:09:20.210Z,11.40
2019-05-23T04:11:49.218Z,11.60
2019-05-23T04:14:18.265Z,11.60
2019-05-23T04:16:48.098Z,11.70
2019-05-23T04:19:17.626Z,11.80
2019-05-23T04:21:46.691Z,11.90
2019-05-23T04:24:16.317Z,12.00
2019-05-23T04:26:45.406Z,12.10
2019-05-23T04:29:14.582Z,12.10
2019-05-23T04:31:43.608Z,12.20
2019-05-23T04:34:12.435Z,12.30
2019-05-23T04:36:41.282Z,12.20
2019-05-23T04:39:10.650Z,12.30
2019-05-23T04:41:39.891Z,12.30
2019-05-23T04:44:08.941Z,12.40
2019-05-23T04:46:37.961Z,12.50
2019-05-23T04:49:07.883Z,12.50
2019-05-23T04:51:37.533Z,12.60
2019-05-23T04:54:07.467Z,12.60
2019-05-23T04:56:36.545Z,12.70
2019-05-23T04:59:06.097Z,12.80
2019-05-23T05:01:36.073Z,12.90
2019-05-23T05:04:05.334Z,13.10
2019-05-23T05:06:34.552Z,13.20
2019-05-23T05:09:06.618Z,13.40
2019-05-23T05:11:35.726Z,13.50
2019-05-23T05:14:05.163Z,13.70
2019-05-23T05:16:34.437Z,13.90
2019-05-23T05:19:03.710Z,14.00
2019-05-23T05:21:33.254Z,14.20
2019-05-23T05:24:02.389Z,14.30
2019-05-23T05:26:31.356Z,14.30
2019-05-23T05:29:00.589Z,14.20
2019-05-23T05:31:29.957Z,14.40
2019-05-23T05:33:58.994Z,14.60
2019-05-23T05:36:28.299Z,14.60
2019-05-23T05:38:57.729Z,14.60
2019-05-23T05:41:27.099Z,14.80
2019-05-23T05:43:56.688Z,14.90
2019-05-23T05:46:25.532Z,14.90
2019-05-23T05:48:54.633Z,15.00
2019-05-23T05:51:23.757Z,15.10
2019-05-23T05:53:53.036Z,15.30
2019-05-23T05:56:22.290Z,15.40
2019-05-23T05:58:51.519Z,15.40
2019-05-23T06:01:33.445Z,15.50
2019-05-23T06:03:51.037Z,15.80
2019-05-23T06:06:28.222Z,15.80
2019-05-23T06:08:59.589Z,15.90
2019-05-23T06:11:28.820Z,15.90
2019-05-23T06:13:57.876Z,16.00
2019-05-23T06:16:27.768Z,15.90
2019-05-23T06:18:57.051Z,15.90
2019-05-23T06:21:28.704Z,16.00
2019-05-23T06:23:57.811Z,16.10
2019-05-23T06:26:27.437Z,16.10
2019-05-23T06:28:56.152Z,16.00
2019-05-23T06:31:25.806Z,16.10
2019-05-23T06:33:55.672Z,16.30
2019-05-23T06:36:24.902Z,16.60
2019-05-23T06:38:56.113Z,16.70
2019-05-23T06:41:25.537Z,16.70
2019-05-23T06:43:54.293Z,16.70
2019-05-23T06:46:23.628Z,16.80
2019-05-23T06:48:53.021Z,17.00
2019-05-23T06:51:22.733Z,16.80
2019-05-23T06:53:52.597Z,16.70
2019-05-23T06:56:22.070Z,16.80
2019-05-23T06:58:51.026Z,16.80
2019-05-23T07:01:19.926Z,16.60
2019-05-23T07:03:49.084Z,16.60
2019-05-23T07:06:21.079Z,16.70
2019-05-23T07:08:52.462Z,16.90
2019-05-23T07:11:23.259Z,17.00
2019-05-23T07:13:52.189Z,17.00
2019-05-23T07:16:21.114Z,17.00
2019-05-23T07:18:49.903Z,17.20
2019-05-23T07:21:20.055Z,17.30
2019-05-23T07:23:50.939Z,17.10
2019-05-23T07:26:20.359Z,17.30
2019-05-23T07:28:49.451Z,17.50
2019-05-23T07:31:18.492Z,17.70
2019-05-23T07:34:01.217Z,17.90
2019-05-23T07:36:19.424Z,18.00
2019-05-23T07:38:48.209Z,18.10
2019-05-23T07:41:17.483Z,18.10
2019-05-23T07:43:46.819Z,18.20
2019-05-23T07:46:16.023Z,18.20
2019-05-23T07:48:44.985Z,18.10
2019-05-23T07:51:13.854Z,17.90
2019-05-23T07:54:05.848Z,18.10
2019-05-23T07:56:35.852Z,18.10
2019-05-23T07:59:05.065Z,18.20
2019-05-23T08:01:35.899Z,18.30
2019-05-23T08:04:20.599Z,18.40
2019-05-23T08:06:36.564Z,18.50
2019-05-23T08:09:08.170Z,18.60
2019-05-23T08:11:36.898Z,18.60
2019-05-23T08:14:06.087Z,18.70
2019-05-23T08:16:35.016Z,18.80
2019-05-23T08:19:05.077Z,18.90
2019-05-23T08:21:34.385Z,19.00
2019-05-23T08:24:04.248Z,18.90
2019-05-23T08:26:33.843Z,19.00
2019-05-23T08:29:24.597Z,19.00
2019-05-23T08:31:34.349Z,19.20
2019-05-23T08:34:03.348Z,19.10
2019-05-23T08:36:32.294Z,19.20
2019-05-23T08:39:01.909Z,19.20
2019-05-23T08:41:30.655Z,19.30
2019-05-23T08:44:03.642Z,19.40
2019-05-23T08:46:32.705Z,19.40
2019-05-23T08:49:01.887Z,19.30
2019-05-23T08:51:30.676Z,19.50
2019-05-23T08:53:59.649Z,19.50
2019-05-23T08:56:28.793Z,19.60
2019-05-23T08:58:57.715Z,19.60
2019-05-23T09:01:27.182Z,19.60
2019-05-23T09:03:57.316Z,19.60
2019-05-23T09:06:26.761Z,19.70
2019-05-23T09:08:55.771Z,19.80
2019-05-23T09:11:24.837Z,19.70
2019-05-23T09:13:54.280Z,19.90
2019-05-23T09:16:23.247Z,19.90
2019-05-23T09:18:52.322Z,19.80
2019-05-23T09:21:21.929Z,19.80
2019-05-23T09:23:51.668Z,19.70
2019-05-23T09:26:20.850Z,19.90
2019-05-23T09:28:50.996Z,20.00
2019-05-23T09:31:21.051Z,20.00
2019-05-23T09:33:49.999Z,19.90
2019-05-23T09:36:19.264Z,19.90
2019-05-23T09:38:48.254Z,19.80
2019-05-23T09:41:17.295Z,20.00
2019-05-23T09:43:46.794Z,20.10
2019-05-23T09:46:15.691Z,20.20
2019-05-23T09:48:44.872Z,20.20
2019-05-23T09:51:13.872Z,20.50
2019-05-23T09:53:47.349Z,20.60
2019-05-23T09:56:14.399Z,20.80
2019-05-23T09:58:43.259Z,21.00
2019-05-23T10:01:12.907Z,20.80
2019-05-23T10:03:41.909Z,20.80
2019-05-23T10:06:10.635Z,20.60
2019-05-23T10:08:39.595Z,20.90
2019-05-23T10:11:08.387Z,20.80
2019-05-23T10:13:39.430Z,20.70
2019-05-23T10:16:09.934Z,20.80
2019-05-23T10:18:39.902Z,20.90
2019-05-23T10:21:08.809Z,20.80
2019-05-23T10:23:37.893Z,20.70
2019-05-23T10:26:07.295Z,20.50
2019-05-23T10:28:36.190Z,20.70
2019-05-23T10:31:07.254Z,20.90
2019-05-23T10:33:36.944Z,21.10
2019-05-23T10:36:07.567Z,21.00
2019-05-23T10:38:36.472Z,21.10
2019-05-23T10:41:06.167Z,21.20
2019-05-23T10:47:04.637Z,21.20
2019-05-23T10:49:33.770Z,21.40
2019-05-23T10:52:02.926Z,21.30
2019-05-23T10:54:31.636Z,21.30
2019-05-23T10:57:00.488Z,21.40
2019-05-23T10:59:30.183Z,21.50
2019-05-23T11:01:59.183Z,21.60
2019-05-23T11:04:28.232Z,21.50
2019-05-23T11:06:57.839Z,21.40
2019-05-23T11:09:37.492Z,21.30
2019-05-23T11:11:58.936Z,21.50
2019-05-23T11:14:27.734Z,21.50
2019-05-23T11:16:56.830Z,21.70
2019-05-23T11:19:25.597Z,22.00
2019-05-23T11:21:54.537Z,21.90
2019-05-23T11:25:17.313Z,21.80
2019-05-23T11:27:47.540Z,21.50
2019-05-23T11:32:51.898Z,21.70
2019-05-23T11:35:21.665Z,21.90
2019-05-23T11:37:50.621Z,22.20
2019-05-23T11:40:19.759Z,22.20
2019-05-23T11:42:52.504Z,22.20
2019-05-23T11:45:19.653Z,22.30
2019-05-23T11:47:48.505Z,22.30
2019-05-23T11:50:17.528Z,22.50
2019-05-23T11:52:47.069Z,22.60
2019-05-23T11:55:16.532Z,22.80
2019-05-23T11:57:45.405Z,23.00
2019-05-23T12:00:16.133Z,23.10
2019-05-23T12:02:45.459Z,23.10
2019-05-23T12:05:18.639Z,23.20
2019-05-23T12:07:47.923Z,23.30
2019-05-23T12:10:17.301Z,23.50
2019-05-23T12:12:46.185Z,23.60
2019-05-23T12:15:21.802Z,23.80
2019-05-23T12:17:51.409Z,24.00
2019-05-23T12:20:20.688Z,24.20
2019-05-23T12:22:50.127Z,23.90
2019-05-23T12:25:22.420Z,24.00
2019-05-23T12:27:49.862Z,24.20
2019-05-23T12:30:20.081Z,24.10
2019-05-23T12:32:48.877Z,24.20
2019-05-23T12:35:17.647Z,24.20
2019-05-23T12:37:46.368Z,24.30
2019-05-23T12:40:15.730Z,24.20
2019-05-23T12:42:44.744Z,24.40
2019-05-23T12:45:14.383Z,24.50
2019-05-23T12:47:51.113Z,24.70
2019-05-23T12:50:23.490Z,24.70
2019-05-23T12:52:52.805Z,24.70
2019-05-23T12:55:21.662Z,24.90
2019-05-23T12:57:50.724Z,24.90
2019-05-23T13:00:37.968Z,24.80
2019-05-23T13:03:07.844Z,24.80
2019-05-23T13:05:37.537Z,25.00
2019-05-23T13:08:06.529Z,24.90
2019-05-23T13:10:35.615Z,24.70
2019-05-23T13:13:04.633Z,24.50
2019-05-23T13:15:35.132Z,24.40
2019-05-23T13:18:04.554Z,24.70
2019-05-23T13:20:34.012Z,24.90
2019-05-23T13:23:03.472Z,25.20
2019-05-23T13:25:32.404Z,25.40
2019-05-23T13:28:01.748Z,25.40
2019-05-23T13:30:30.887Z,25.30
2019-05-23T13:33:03.440Z,25.20
2019-05-23T13:35:30.823Z,25.10
2019-05-23T13:37:59.751Z,25.40
2019-05-23T13:40:28.992Z,25.50
2019-05-23T13:42:58.217Z,25.50
2019-05-23T13:45:27.222Z,25.60
2019-05-23T13:47:56.198Z,25.60
2019-05-23T13:50:25.650Z,25.50
2019-05-23T13:52:55.204Z,25.60
2019-05-23T13:55:24.373Z,25.70
2019-05-23T13:57:53.103Z,25.80
2019-05-23T14:00:22.703Z,25.90
2019-05-23T14:02:51.563Z,25.90
2019-05-23T14:05:20.845Z,25.80
2019-05-23T14:07:49.910Z,25.70
2019-05-23T14:10:19.095Z,25.80
2019-05-23T14:12:48.563Z,25.80
2019-05-23T14:15:21.584Z,25.60
2019-05-23T14:17:50.469Z,25.50
2019-05-23T14:20:21.051Z,25.30
2019-05-23T14:22:54.561Z,25.40
2019-05-23T14:25:24.209Z,25.70
2019-05-23T14:27:58.296Z,25.80
2019-05-23T14:30:44.977Z,25.80
2019-05-23T14:33:51.429Z,26.10
2019-05-23T14:36:26.025Z,26.30
2019-05-23T14:38:56.062Z,26.50
2019-05-23T14:41:24.914Z,26.80
2019-05-23T14:43:54.414Z,26.90
2019-05-23T14:46:23.287Z,26.60
2019-05-23T14:49:16.177Z,26.50
2019-05-23T14:52:01.520Z,26.60
2019-05-23T14:54:37.678Z,26.80
2019-05-23T14:57:07.553Z,27.00
2019-05-23T14:59:37.436Z,27.00
2019-05-23T15:02:12.464Z,27.00
2019-05-23T15:04:41.697Z,27.00
2019-05-23T15:07:10.698Z,27.10
2019-05-23T15:09:39.827Z,26.80
2019-05-23T15:12:09.057Z,26.90
2019-05-23T15:14:38.247Z,27.20
2019-05-23T15:17:07.491Z,27.40
2019-05-23T15:19:44.114Z,27.60
2019-05-23T15:22:06.906Z,27.80
2019-05-23T15:24:35.947Z,27.80
2019-05-23T15:27:05.174Z,27.90
2019-05-23T15:29:34.069Z,27.90
2019-05-23T15:32:03.349Z,28.00
2019-05-23T15:34:34.975Z,28.20
2019-05-23T15:37:03.017Z,28.20
2019-05-23T15:39:32.203Z,27.80
2019-05-23T15:42:01.012Z,27.90
2019-05-23T15:44:30.638Z,28.20
2019-05-23T15:46:59.851Z,28.30
2019-05-23T15:49:29.330Z,28.70
2019-05-23T15:52:04.757Z,28.90
2019-05-23T15:54:46.918Z,28.80
2019-05-23T15:57:34.295Z,28.70
2019-05-23T16:00:22.312Z,27.90
2019-05-23T16:03:14.217Z,28.30
2019-05-23T16:05:44.048Z,29.80
2019-05-23T16:08:12.996Z,32.00
2019-05-23T16:10:42.272Z,32.90
2019-05-23T16:13:11.166Z,33.40
2019-05-23T16:15:40.168Z,33.10
2019-05-23T16:18:09.779Z,31.80
2019-05-23T16:20:38.561Z,31.20
2019-05-23T16:23:07.840Z,31.00
2019-05-23T16:25:36.676Z,31.60
2019-05-23T16:28:06.228Z,32.00
2019-05-23T16:30:36.264Z,32.40
2019-05-23T16:33:05.476Z,32.70
2019-05-23T16:35:34.692Z,33.20
2019-05-23T16:38:03.783Z,32.60
2019-05-23T16:40:32.695Z,33.00
2019-05-23T16:43:01.674Z,33.10
2019-05-23T16:45:30.759Z,33.30
2019-05-23T16:47:59.865Z,33.20
2019-05-23T16:50:28.952Z,32.40
2019-05-23T16:52:57.773Z,32.70
2019-05-23T16:56:01.077Z,32.80
2019-05-23T16:58:47.153Z,32.60
2019-05-23T17:01:35.141Z,32.60
2019-05-23T17:04:10.489Z,32.80
2019-05-23T17:06:52.317Z,33.00
2019-05-23T17:09:36.552Z,33.10
2019-05-23T17:12:31.407Z,33.10
2019-05-23T17:15:05.777Z,33.00
2019-05-23T17:18:01.290Z,32.90
2019-05-23T17:20:25.976Z,32.70
2019-05-23T17:23:04.083Z,32.30
2019-05-23T17:25:44.962Z,31.80
2019-05-23T17:28:23.528Z,31.60
2019-05-23T17:31:01.943Z,31.10
2019-05-23T17:33:38.647Z,30.80
2019-05-23T17:36:07.930Z,30.30
2019-05-23T17:38:37.005Z,29.60
2019-05-23T17:41:06.554Z,29.10
2019-05-23T17:43:35.662Z,28.60
2019-05-23T17:46:05.430Z,28.30
2019-05-23T17:48:34.863Z,28.00
2019-05-23T17:51:04.145Z,28.00
2019-05-23T17:53:32.972Z,28.00
2019-05-23T17:56:01.822Z,28.00
2019-05-23T17:58:30.796Z,27.80
2019-05-23T18:00:59.959Z,27.70
2019-05-23T18:03:29.096Z,27.80
2019-05-23T18:05:57.813Z,27.70
2019-05-23T18:08:26.903Z,27.50
2019-05-23T18:10:55.944Z,27.30
2019-05-23T18:13:25.018Z,27.30
2019-05-23T18:15:54.547Z,27.00
2019-05-23T18:18:23.592Z,26.80
2019-05-23T18:20:52.729Z,26.40
2019-05-23T18:23:22.233Z,25.90
2019-05-23T18:25:51.766Z,25.70
2019-05-23T18:28:20.943Z,25.60
2019-05-23T18:30:53.628Z,25.50
2019-05-23T18:33:31.068Z,25.10
2019-05-23T18:36:00.263Z,25.00
2019-05-23T18:38:29.369Z,24.90
2019-05-23T18:41:04.394Z,24.70
2019-05-23T18:43:29.244Z,24.40
2019-05-23T18:46:01.007Z,24.30
2019-05-23T18:48:29.889Z,24.20
2019-05-23T18:50:59.017Z,24.20
2019-05-23T18:53:28.664Z,24.10
2019-05-23T18:55:57.740Z,24.00
2019-05-23T18:58:26.527Z,23.90
2019-05-23T19:01:04.614Z,23.70
2019-05-23T19:03:33.795Z,23.50
2019-05-23T19:06:02.763Z,23.30
2019-05-23T19:08:32.153Z,23.10
2019-05-23T19:11:19.007Z,23.00
2019-05-23T19:13:32.719Z,22.90
2019-05-23T19:16:01.434Z,22.80
2019-05-23T19:18:30.793Z,22.70
2019-05-23T19:21:00.798Z,22.60
2019-05-23T19:23:29.889Z,22.50
2019-05-23T19:25:59.997Z,22.30
2019-05-23T19:28:29.338Z,22.20
2019-05-23T19:30:58.894Z,22.00
2019-05-23T19:33:28.170Z,21.90
2019-05-23T19:35:57.332Z,21.80
2019-05-23T19:38:26.107Z,21.70
2019-05-23T19:40:55.478Z,21.70
2019-05-23T19:43:24.314Z,21.50
2019-05-23T19:45:53.340Z,21.40
2019-05-23T19:48:23.313Z,21.30
2019-05-23T19:50:53.190Z,21.20
2019-05-23T19:53:22.194Z,21.10
2019-05-23T19:55:51.576Z,21.10
2019-05-23T19:58:20.654Z,21.00
2019-05-23T20:00:49.445Z,20.80
2019-05-23T20:03:19.600Z,20.70
2019-05-23T20:05:49.196Z,20.70
2019-05-23T20:08:18.355Z,20.50
2019-05-23T20:10:48.315Z,20.40
2019-05-23T20:13:18.709Z,20.20
2019-05-23T20:15:48.601Z,20.20
2019-05-23T20:18:17.979Z,20.20
2019-05-23T20:20:46.771Z,20.30
2019-05-23T20:23:16.540Z,20.30
2019-05-23T20:25:46.108Z,20.20
2019-05-23T20:28:15.176Z,20.20
2019-05-23T20:30:56.986Z,20.10
2019-05-23T20:33:25.847Z,20.00
2019-05-23T20:36:03.248Z,20.00
2019-05-23T20:38:32.038Z,19.80
2019-05-23T20:41:01.585Z,19.80
2019-05-23T20:43:30.679Z,19.60
2019-05-23T20:45:59.755Z,19.50
2019-05-23T20:48:29.248Z,19.50
2019-05-23T20:50:57.998Z,19.40
2019-05-23T20:53:26.973Z,19.40
2019-05-23T20:55:56.322Z,19.20
2019-05-23T20:58:25.016Z,19.20
2019-05-23T21:00:58.944Z,19.20
2019-05-23T21:03:28.519Z,19.20
2019-05-23T21:05:57.903Z,19.10
2019-05-23T21:08:26.676Z,19.00
2019-05-23T21:10:55.883Z,19.10
2019-05-23T21:13:24.888Z,19.00
2019-05-23T21:15:53.633Z,19.00
2019-05-23T21:18:22.494Z,18.90
2019-05-23T21:20:51.387Z,18.90
2019-05-23T21:23:20.344Z,18.90
2019-05-23T21:26:02.961Z,18.70
2019-05-23T21:28:31.753Z,18.60
2019-05-23T21:31:00.563Z,18.40
2019-05-23T21:33:29.427Z,18.20
2019-05-23T21:36:00.181Z,18.20
2019-05-23T21:38:29.094Z,18.20
2019-05-23T21:40:58.201Z,18.20
2019-05-23T21:43:27.372Z,18.10
2019-05-23T21:45:57.740Z,18.10
2019-05-23T21:48:26.828Z,18.10
2019-05-23T21:50:55.857Z,18.10
2019-05-23T21:53:24.607Z,18.10
2019-05-23T21:55:53.730Z,18.10
2019-05-23T21:58:22.420Z,18.00
2019-05-23T22:01:37.989Z,17.70
2019-05-23T22:04:22.714Z,17.70
2019-05-23T22:06:56.590Z,17.50
2019-05-23T22:09:25.605Z,17.40
2019-05-23T22:11:54.754Z,17.40
2019-05-23T22:14:23.812Z,17.40
2019-05-23T22:16:52.791Z,17.40
2019-05-23T22:19:23.052Z,17.40
2019-05-23T22:21:52.149Z,17.40
2019-05-23T22:24:21.423Z,17.30
2019-05-23T22:26:50.247Z,17.30
2019-05-23T22:29:19.005Z,17.30
2019-05-23T22:31:47.728Z,17.20
2019-05-23T22:34:38.184Z,17.20
2019-05-23T22:37:18.997Z,17.10
2019-05-23T22:39:47.869Z,17.00
2019-05-23T22:42:18.536Z,16.90
2019-05-23T22:44:47.446Z,17.00
2019-05-23T22:47:16.990Z,17.00
2019-05-23T22:49:46.200Z,16.90
2019-05-23T22:52:14.987Z,16.80
2019-05-23T22:54:43.705Z,16.70
2019-05-23T22:57:12.556Z,16.80
2019-05-23T22:59:41.862Z,16.80
2019-05-23T23:02:13.635Z,16.70
2019-05-23T23:04:42.418Z,16.70
2019-05-23T23:07:11.314Z,16.70
2019-05-23T23:09:40.026Z,16.70
2019-05-23T23:12:08.935Z,16.70
2019-05-23T23:14:37.651Z,16.80
2019-05-23T23:17:06.473Z,16.80
2019-05-23T23:19:35.261Z,16.80
2019-05-23T23:22:04.475Z,16.80
2019-05-23T23:24:33.285Z,16.80
2019-05-23T23:27:02.018Z,16.70
2019-05-23T23:29:31.409Z,16.70
2019-05-23T23:32:03.736Z,16.70
2019-05-23T23:34:31.052Z,16.80
2019-05-23T23:36:59.770Z,16.80
2019-05-23T23:39:28.661Z,16.80
2019-05-23T23:41:57.398Z,16.80
2019-05-23T23:44:33.695Z,16.80
2019-05-23T23:47:24.547Z,16.80
2019-05-23T23:50:11.383Z,16.80
2019-05-23T23:52:58.555Z,16.90
2019-05-23T23:55:45.687Z,16.80
2019-05-23T23:58:13.776Z,16.70
